Latest Weather Observations for Douglas River

IDD60801

Issued at 11:11 am CST Wednesday 25 May 2022 (issued every 10 minutes, with the page automatically refreshed every 10 minutes)

About weather observations | Map of weather stations | Latest weather observations for NT | Other Formats
Station Details ID: 014901 Name: DOUGLAS RIVER RESEARCH FARM Lat: -13.83 Lon: 131.19 Height: 42.8 m
Data from the previous 72 hours. | See also: Recent months at Douglas River
Date/Time
CST
Temp
°C
App
Temp
°C
Dew
Point
°C
Rel
Hum
%
Delta-T
°C
Wind Press
QNH
hPa
Press
MSL
hPa
Rain since
9am
mm
Dir  Spd
km/h
Gust
km/h
Spd
kts
Gust
kts
25/11:00am 31.7 31.2 16.8 40 9.4 SSE 15 20 8 11 1013.3 1013.1 0.0
25/10:30am 30.6 29.8 17.0 44 8.6 SE 17 26 9 14 1013.7 1013.5 0.0
25/10:00am 29.0 28.0 16.5 46 7.8 SE 17 20 9 11 1013.9 1013.7 0.0
25/09:30am 27.3 27.4 17.5 55 6.2 SE 13 19 7 10 1014.0 1013.8 0.0
25/09:00am 24.6 25.9 18.5 69 3.9 ESE 9 13 5 7 1014.1 1013.9 0.0
25/08:30am 21.8 24.6 20.4 92 0.9 SE 6 9 3 5 1014.1 1013.9 0.0
25/08:00am 19.5 21.6 19.0 97 0.3 SE 6 9 3 5 1014.1 1013.9 0.0
25/07:30am 17.4 18.4 16.4 94 0.6 SSE 6 11 3 6 1013.6 1013.4 0.0
25/07:00am 17.6 18.6 16.8 95 0.5 E 7 11 4 6 1013.2 1013.0 0.0
25/06:30am 18.1 19.6 17.6 97 0.3 SE 6 6 3 3 1013.2 1013.0 0.0
25/06:00am 17.3 19.4 16.2 93 0.7 CALM 0 0 0 0 1012.9 1012.7 0.0
25/05:30am 17.7 20.0 16.7 94 0.6 CALM 0 0 0 0 1012.5 1012.3 0.0
25/05:00am 17.8 20.3 17.2 96 0.4 CALM 0 0 0 0 1012.4 1012.2 0.0
25/04:30am 17.5 19.7 16.4 93 0.7 CALM 0 0 0 0 1012.5 1012.3 0.0
25/04:00am 17.8 19.7 15.8 88 1.2 CALM 0 0 0 0 1012.5 1012.3 0.0
25/03:30am 18.0 20.2 16.5 91 0.9 CALM 0 0 0 0 1012.7 1012.5 0.0
25/03:00am 18.9 21.5 17.4 91 0.9 CALM 0 0 0 0 1012.9 1012.7 0.0
25/02:30am 18.8 20.0 16.8 88 1.2 NNW 6 7 3 4 1013.2 1013.0 0.0
25/02:00am 19.2 21.4 16.4 84 1.7 CALM 0 0 0 0 1013.8 1013.6 0.0
25/01:30am 20.0 22.3 16.8 82 1.9 CALM 0 0 0 0 1013.7 1013.5 0.0
25/01:00am 22.1 23.5 18.7 81 2.1 NNW 9 13 5 7 1013.8 1013.6 0.0
25/12:30am 21.9 22.3 17.3 75 2.8 NNW 11 15 6 8 1013.7 1013.5 0.0
25/12:00am 21.2 22.2 16.8 76 2.7 NW 7 13 4 7 1014.1 1013.9 0.0
 
Date/Time
CST
Temp
°C
App
Temp
°C
Dew
Point
°C
Rel
Hum
%
Delta-T
°C
Wind Press
QNH
hPa
Press
MSL
hPa
Rain since
9am
mm
Dir  Spd
km/h
Gust
km/h
Spd
kts
Gust
kts
24/11:30pm 21.0 23.9 18.2 84 1.7 CALM 0 0 0 0 1014.0 1013.8 0.0
24/11:00pm 21.3 23.3 18.7 85 1.6 NE 6 7 3 4 1013.9 1013.7 0.0
24/10:30pm 21.3 23.7 17.1 77 2.6 CALM 0 0 0 0 1013.9 1013.7 0.0
24/10:00pm 22.6 25.3 17.7 74 3.0 CALM 0 0 0 0 1013.8 1013.6 0.0
24/09:30pm 23.1 25.7 17.6 71 3.4 CALM 0 0 0 0 1013.8 1013.6 0.0
24/09:00pm 24.2 26.6 17.0 64 4.5 CALM 0 0 0 0 1013.8 1013.6 0.0
24/08:30pm 26.1 27.1 16.4 55 6.0 ESE 6 7 3 4 1013.7 1013.5 0.0
24/08:00pm 26.2 27.1 16.2 54 6.2 SE 6 7 3 4 1013.3 1013.1 0.0
24/07:30pm 26.6 28.9 16.8 55 6.1 CALM 0 0 0 0 1012.8 1012.6 0.0
24/07:00pm 28.0 30.0 16.0 48 7.4 CALM 0 2 0 1 1012.4 1012.2 0.0
24/06:30pm 29.5 29.6 15.6 43 8.6 SSE 9 9 5 5 1012.0 1011.8 0.0
24/06:00pm 31.9 31.6 15.4 37 10.2 SSE 11 13 6 7 1011.4 1011.2 0.0
24/05:30pm 33.3 33.0 14.4 32 11.6 S 9 15 5 8 1011.1 1010.9 0.0
24/05:00pm 33.8 34.4 15.3 33 11.5 N 6 9 3 5 1010.9 1010.7 0.0
24/04:30pm 34.4 34.8 14.8 30 12.2 N 6 9 3 5 1010.7 1010.5 0.0
24/04:00pm 34.3 34.9 15.7 32 11.7 NNW 7 13 4 7 1010.5 1010.3 0.0
24/03:30pm 34.9 35.6 15.7 31 12.1 NNW 6 9 3 5 1010.5 1010.3 0.0
24/03:00pm 34.9 35.5 15.7 31 12.1 NNW 7 15 4 8 1010.6 1010.4 0.0
24/02:30pm 34.3 33.9 15.2 31 11.9 N 11 15 6 8 1010.8 1010.6 0.0
24/02:00pm 34.6 34.9 16.0 33 11.7 NNE 9 17 5 9 1011.0 1010.8 0.0
24/01:30pm 34.2 34.7 15.1 31 11.9 NNE 6 13 3 7 1011.5 1011.3 0.0
24/01:00pm 34.4 35.0 15.8 33 11.7 N 7 11 4 6 1012.0 1011.8 0.0
24/12:30pm 34.0 33.7 14.5 31 12.0 NE 9 15 5 8 1012.3 1012.1 0.0
24/12:00pm 32.4 32.1 15.4 36 10.6 NE 11 17 6 9 1012.7 1012.5 0.0
24/11:30am 31.6 32.2 16.7 40 9.4 NE 9 17 5 9 1013.1 1012.9 0.0
24/11:00am 31.1 31.4 17.0 42 8.9 ENE 11 20 6 11 1013.5 1013.3 0.0
24/10:30am 30.6 31.7 18.0 47 8.1 NE 9 15 5 8 1014.0 1013.8 0.0
24/10:00am 28.6 30.1 18.1 53 6.7 ESE 7 13 4 7 1014.1 1013.9 0.0
24/09:30am 26.6 27.8 17.4 57 5.8 SE 7 11 4 6 1014.2 1014.0 0.0
24/09:00am 24.7 25.3 16.9 62 4.8 SE 9 11 5 6 1014.0 1013.8 0.0
24/08:30am 22.2 22.3 16.5 70 3.5 SSE 11 15 6 8 1013.8 1013.6 0.0
24/08:00am 19.5 20.4 16.7 84 1.7 SE 7 11 4 6 1013.6 1013.4 0.0
24/07:30am 17.0 17.6 15.7 92 0.8 SE 7 9 4 5 1013.4 1013.2 0.0
24/07:00am 16.4 18.1 15.1 92 0.8 CALM 0 0 0 0 1012.8 1012.6 0.0
24/06:30am 16.6 18.3 15.3 92 0.8 CALM 0 0 0 0 1012.6 1012.4 0.0
24/06:00am 16.8 18.7 15.7 93 0.6 CALM 0 4 0 2 1012.3 1012.1 0.0
24/05:30am 16.9 18.8 15.8 93 0.6 CALM 0 0 0 0 1012.1 1011.9 0.0
24/05:00am 16.8 18.7 15.7 93 0.6 CALM 0 0 0 0 1012.0 1011.8 0.0
24/04:30am 16.8 18.4 15.0 89 1.0 CALM 0 0 0 0 1011.9 1011.7 0.0
24/04:00am 17.6 18.7 16.5 93 0.7 NNE 6 7 3 4 1011.8 1011.6 0.0
24/03:30am 17.2 19.0 15.5 90 1.0 CALM 0 0 0 0 1011.7 1011.5 0.0
24/03:00am 17.6 19.6 16.1 91 0.9 CALM 0 0 0 0 1012.0 1011.8 0.0
24/02:30am 17.2 19.0 15.4 89 1.1 CALM 0 0 0 0 1012.0 1011.8 0.0
24/02:00am 17.2 19.1 15.7 91 0.9 CALM 0 0 0 0 1011.9 1011.7 0.0
24/01:30am 18.1 19.9 15.5 85 1.5 CALM 0 0 0 0 1012.1 1011.9 0.0
24/01:00am 18.9 20.9 16.1 84 1.7 CALM 0 0 0 0 1012.3 1012.1 0.0
24/12:30am 19.0 21.3 16.8 87 1.3 CALM 0 0 0 0 1012.2 1012.0 0.0
24/12:00am 19.2 21.2 16.1 82 1.9 CALM 0 0 0 0 1012.3 1012.1 0.0
 
Date/Time
CST
Temp
°C
App
Temp
°C
Dew
Point
°C
Rel
Hum
%
Delta-T
°C
Wind Press
QNH
hPa
Press
MSL
hPa
Rain since
9am
mm
Dir  Spd
km/h
Gust
km/h
Spd
kts
Gust
kts
23/11:30pm 20.2 22.3 16.2 78 2.4 CALM 0 0 0 0 1012.4 1012.2 0.0
23/11:00pm 20.9 21.8 16.1 74 2.9 ENE 6 7 3 4 1012.5 1012.3 0.0
23/10:30pm 22.6 23.3 15.7 65 4.2 ESE 6 7 3 4 1012.6 1012.4 0.0
23/10:00pm 22.8 23.4 15.9 65 4.2 E 7 9 4 5 1012.6 1012.4 0.0
23/09:30pm 23.2 23.8 15.8 63 4.5 ESE 7 9 4 5 1012.5 1012.3 0.0
23/09:00pm 23.8 25.3 15.8 61 4.8 SSE 2 6 1 3 1012.4 1012.2 0.0
23/08:30pm 24.0 26.0 16.0 61 4.9 CALM 0 0 0 0 1012.1 1011.9 0.0
23/08:00pm 24.2 26.4 16.5 62 4.7 CALM 0 0 0 0 1011.7 1011.5 0.0
23/07:30pm 25.8 27.3 15.8 54 6.1 SSW 2 6 1 3 1011.4 1011.2 0.0
23/07:00pm 26.5 28.1 17.0 56 5.9 SW 4 7 2 4 1010.9 1010.7 0.0
23/06:30pm 29.2 29.7 15.0 42 8.7 SSE 6 7 3 4 1010.5 1010.3 0.0
23/06:00pm 31.1 30.8 14.3 36 10.2 SSE 9 11 5 6 1010.1 1009.9 0.0
23/05:30pm 32.7 31.3 13.4 31 11.7 SSE 13 17 7 9 1009.8 1009.6 0.0
23/05:00pm 33.8 31.6 13.3 29 12.4 SE 17 24 9 13 1009.7 1009.5 0.0
23/04:30pm 33.9 31.5 12.8 28 12.7 SSE 17 26 9 14 1009.7 1009.5 0.0
23/04:00pm 33.9 31.4 12.3 27 12.9 SSE 17 24 9 13 1009.8 1009.6 0.0
23/03:30pm 34.1 32.4 12.4 26 13.0 SSE 13 24 7 13 1009.9 1009.7 0.0
23/03:00pm 34.0 31.1 12.9 28 12.7 SE 20 28 11 15 1010.2 1010.0 0.0
23/02:30pm 33.5 30.6 13.0 29 12.4 SSE 20 30 11 16 1010.5 1010.3 0.0
23/02:00pm 33.6 31.9 13.6 29 12.2 SE 15 24 8 13 1010.9 1010.7 0.0
23/01:30pm 33.1 31.6 14.2 32 11.6 SSE 15 26 8 14 1011.5 1011.3 0.0
23/01:00pm 32.7 30.6 14.8 34 11.0 SE 19 33 10 18 1012.2 1012.0 0.0
23/12:30pm 31.9 29.7 14.5 34 10.7 ESE 19 32 10 17 1012.8 1012.6 0.0
23/12:00pm 32.2 29.2 14.8 35 10.7 SE 24 39 13 21 1013.1 1012.9 0.0
23/11:30am 31.3 29.2 15.3 38 9.9 S 20 30 11 16 1013.5 1013.3 0.0
23/11:00am 31.1 30.4 16.3 41 9.3 SSW 15 24 8 13 1013.9 1013.7 0.0
23/10:30am 29.2 28.5 15.3 42 8.5 SSE 13 17 7 9 1014.2 1014.0 0.0
23/10:00am 27.8 26.6 15.1 46 7.7 SSE 15 19 8 10 1014.3 1014.1 0.0
23/09:30am 26.2 25.0 15.0 50 6.8 SE 15 19 8 10 1014.4 1014.2 0.0
23/09:00am 24.5 23.4 14.3 53 6.0 SSE 13 19 7 10 1014.1 1013.9 0.0
23/08:30am 22.5 22.5 15.1 63 4.4 SSE 9 13 5 7 1014.0 1013.8 0.0
23/08:00am 19.6 20.9 16.1 80 2.1 ESE 4 7 2 4 1013.5 1013.3 0.0
23/07:30am 17.9 18.4 15.0 83 1.7 ESE 6 6 3 3 1013.1 1012.9 0.0
23/07:00am 17.4 17.9 15.0 86 1.4 ESE 6 9 3 5 1012.8 1012.6 0.0
23/06:30am 17.4 18.4 15.4 88 1.2 E 4 7 2 4 1012.5 1012.3 0.0
23/06:00am 16.5 18.2 15.2 92 0.8 CALM 0 0 0 0 1012.1 1011.9 0.0
23/05:30am 16.5 18.2 15.2 92 0.8 CALM 0 0 0 0 1011.7 1011.5 0.0
23/05:00am 16.1 17.6 14.6 91 0.9 CALM 0 0 0 0 1011.6 1011.4 0.0
23/04:30am 16.6 18.3 15.1 91 0.9 CALM 0 0 0 0 1011.5 1011.3 0.0
23/04:00am 17.0 17.6 15.9 93 0.6 NE 7 13 4 7 1011.7 1011.5 0.0
23/03:30am 17.0 18.7 15.3 90 1.0 CALM 0 0 0 0 1011.3 1011.1 0.0
23/03:00am 17.9 18.8 16.1 89 1.1 NNE 6 7 3 4 1011.3 1011.1 0.0
23/02:30am 18.0 19.2 16.0 88 1.2 NNE 4 11 2 6 1011.3 1011.1 0.0
23/02:00am 18.7 21.0 16.7 88 1.2 CALM 0 0 0 0 1011.3 1011.1 0.0
23/01:30am 18.5 20.3 15.6 83 1.7 CALM 0 0 0 0 1011.5 1011.3 0.0
23/01:00am 19.8 21.8 16.1 79 2.2 CALM 0 0 0 0 1011.7 1011.5 0.0
23/12:30am 20.4 21.3 16.0 76 2.6 E 6 7 3 4 1011.9 1011.7 0.0
23/12:00am 20.7 21.5 15.9 74 2.9 E 6 7 3 4 1012.0 1011.8 0.0
 
Date/Time
CST
Temp
°C
App
Temp
°C
Dew
Point
°C
Rel
Hum
%
Delta-T
°C
Wind Press
QNH
hPa
Press
MSL
hPa
Rain since
9am
mm
Dir  Spd
km/h
Gust
km/h
Spd
kts
Gust
kts
22/11:30pm 21.9 22.3 15.3 66 3.9 E 7 9 4 5 1011.8 1011.6 0.0
22/11:00pm 22.8 22.8 15.1 62 4.6 ESE 9 9 5 5 1011.8 1011.6 0.0
22/10:30pm 23.2 23.7 15.0 60 4.9 ESE 6 7 3 4 1011.8 1011.6 0.0
22/10:00pm 23.3 23.8 15.1 60 4.9 ESE 6 7 3 4 1011.8 1011.6 0.0
22/09:30pm 23.0 24.3 16.1 65 4.2 SE 4 7 2 4 1011.7 1011.5 0.0
22/09:00pm 23.2 24.1 16.0 64 4.4 E 6 7 3 4 1011.5 1011.3 0.0
22/08:30pm 23.9 25.8 15.7 60 5.0 CALM 0 0 0 0 1011.4 1011.2 0.0
22/08:00pm 25.0 26.2 14.8 53 6.1 S 2 6 1 3 1011.2 1011.0 0.0
22/07:30pm 25.5 26.0 14.9 52 6.4 S 6 7 3 4 1010.8 1010.6 0.0
22/07:00pm 26.6 26.7 14.4 47 7.3 SSW 7 7 4 4 1010.3 1010.1 0.0
22/06:30pm 28.4 28.1 14.3 42 8.5 S 9 9 5 5 1009.9 1009.7 0.0
22/06:00pm 30.9 30.0 13.7 35 10.4 S 11 13 6 7 1009.6 1009.4 0.0
22/05:30pm 32.5 30.9 12.7 30 11.8 S 13 17 7 9 1009.2 1009.0 0.0
22/05:00pm 33.3 31.4 12.9 29 12.3 SSE 15 20 8 11 1009.0 1008.8 0.0
22/04:30pm 33.8 32.2 12.7 27 12.7 SSE 13 17 7 9 1009.1 1008.9 0.0
22/04:00pm 33.8 31.4 12.7 27 12.7 ESE 17 26 9 14 1009.1 1008.9 0.0
22/03:30pm 34.3 31.5 12.6 27 13.0 S 19 26 10 14 1009.3 1009.1 0.0
22/03:00pm 34.0 32.4 12.9 28 12.7 SSE 13 22 7 12 1009.5 1009.3 0.0
22/02:30pm 34.3 31.9 13.7 29 12.6 SE 19 26 10 14 1009.9 1009.7 0.0
22/02:00pm 33.9 31.7 13.4 29 12.4 SE 17 30 9 16 1010.4 1010.2 0.0
22/01:30pm 34.0 32.8 15.0 32 11.8 SE 15 20 8 11 1010.9 1010.7 0.0
22/01:00pm 33.3 32.0 14.8 32 11.4 ESE 15 22 8 12 1011.5 1011.3 0.0
22/12:30pm 32.6 30.3 14.2 32 11.2 SE 19 30 10 16 1012.0 1011.8 0.0
22/12:00pm 32.8 30.6 14.9 34 11.1 SE 20 28 11 15 1012.4 1012.2 0.0
22/11:30am 31.8 29.6 14.9 36 10.4 SE 20 32 11 17 1013.0 1012.8 0.0

Other formats

Comma delimited format used in spreadsheet applications
http://www.bom.gov.au/fwo/IDD60801/IDD60801.94128.axf

JavaScript Object Notation format (JSON) in row-major order
http://www.bom.gov.au/fwo/IDD60801/IDD60801.94128.json

Data quality

Most of these data are generated automatically and are frequently updated. Quality checks on data are not normally performed. It is possible for incorrect values to appear. Refer to information at About Latest Weather Observations and please check the disclaimer before using these data.